Terminal Aerodrome Forecast
Issued by NWS

Home | Current Version | Previous Version | Text Only | Print | Product List | Glossary On
Versions: 1 2 3 4 5 6 7 8 9 10 11 12 13 14 15 16 17 18 19 20 21 22 23 24 25 26 27 28 29 30 31 32
000
FTUS45 KREV 191731
TAFTVL
TAF
KTVL 191731Z 1918/2018 19008KT P6SM FEW030
     FM200000 19005KT 5SM -SHSN SCT025 BKN035
     FM200500 18004KT P6SM SCT040=

USA.gov is the U.S. government's official web portal to all federal, state and local government web resources and services.